Terminal Aerodrome Forecast
Issued by NWS Melbourne, FL

Home | Current Version | Previous Version | Text Only | Print | Product List | Glossary On
Versions: 1 2 3 4 5 6 7 8 9 10 11 12 13 14
000
FTUS42 KMLB 251126
TAFDAB
TAF
KDAB 251126Z 2512/2612 00000KT P6SM SCT250
     FM251400 18009KT P6SM SCT035
     FM251600 20011G16KT P6SM SCT035
     FM252000 25010G17KT P6SM VCTS SCT035CB BKN060
     FM260100 23009KT P6SM SCT060 BKN200=

USA.gov is the U.S. government's official web portal to all federal, state and local government web resources and services.